• Join FlightAware (Why Join?)
  • Login
  • US Flag 
01:06AM EST


 

Airport Tracker/Info


-or-


 

Live Flight TrackerFlight Track Log ✈ AFR65 ✈ 20-Jul-2013 ✈ KLAX - LFPG / CDG

Flight Track Log - Related Links

Times and Time Zones

All times are in EDT time to prevent confusion due to time zone crossing. See the AFR65 flight status page for this flight to view local times or setup timezone preferences in your user account.

Time Position Orientation Groundspeed Altitude Reporting Facility
EDT Latitude Longitude Course Direction KTS MPH feet Rate Location/Type
07:03PM 33.9440 -118.4610 264° West 173 199 1,200  Level FlightAware
07:03PM 33.9440 -118.4680 270° West 176 203 1,300 1,500 Climbing FlightAware
07:03PM 33.9420 -118.4960 265° West 190 219 2,000 1,140 Climbing FlightAware
07:04PM 33.9400 -118.5250 265° West 225 259 2,300 780 Climbing FlightAware
07:04PM 33.9380 -118.5510 265° West 254 292 2,600 2,280 Climbing FlightAware
07:04PM 33.9320 -118.5880 259° West 261 300 3,500 3,240 Climbing FlightAware
07:04PM 33.9290 -118.5940 239° Southwest 259 298 3,800 2,100 Climbing FlightAware
07:05PM 33.9120 -118.6260 237° Southwest 256 295 4,900 2,160 Climbing FlightAware
07:05PM 33.8960 -118.6400 216° Southwest 250 288 5,600 2,400 Climbing FlightAware
07:05PM 33.8810 -118.6460 198° South 250 288 6,100 2,280 Climbing FlightAware
07:05PM 33.8620 -118.6460 180° South 254 292 6,600 2,400 Climbing FlightAware
07:06PM 33.8410 -118.6360 158° South 251 289 7,300 1,980 Climbing FlightAware
07:06PM 33.8380 -118.6340 151° Southeast 251 289 7,400 1,500 Climbing FlightAware
07:06PM 33.8300 -118.6220 129° Southeast 251 289 7,800 1,800 Climbing FlightAware
07:06PM 33.8230 -118.5940 107° East 262 302 8,300 2,280 Climbing FlightAware
07:07PM 33.8410 -118.5470 65° Northeast 275 316 9,200 2,280 Climbing FlightAware
07:07PM 33.8580 -118.5230 50° Northeast 280 322 10,000 1,920 Climbing FlightAware
07:08PM 33.8990 -118.4740 45° Northeast 294 338 11,300 1,740 Climbing FlightAware
07:08PM 33.9360 -118.4280 46° Northeast 317 365 12,300 1,800 Climbing FlightAware
07:09PM 33.9730 -118.3620 56° Northeast 328 377 13,800 1,620 Climbing FlightAware
07:10PM 34.0060 -118.3040 56° Northeast 351 404 14,500 1,620 Climbing FlightAware
07:10PM 34.0400 -118.2450 55° Northeast 356 410 15,800 1,980 Climbing FlightAware
07:11PM 34.0800 -118.1730 56° Northeast 362 417 17,200 1,740 Climbing FlightAware
07:12PM 34.1180 -118.1050 56° Northeast 374 430 18,300 1,620 Climbing FlightAware
07:12PM 34.1590 -118.0330 55° Northeast 386 444 19,400 1,620 Climbing FlightAware
07:13PM 34.1970 -117.9650 56° Northeast 393 452 20,500 1,560 Climbing FlightAware
07:14PM 34.2370 -117.8940 56° Northeast 401 461 21,400 1,320 Climbing FlightAware
07:14PM 34.2970 -117.8220 45° Northeast 414 476 22,400 1,320 Climbing FlightAware
07:15PM 34.3740 -117.7660 31° Northeast 421 484 23,500 1,440 Climbing FlightAware
07:16PM 34.4450 -117.7160 30° Northeast 428 493 24,500 1,260 Climbing FlightAware
07:17PM 34.5120 -117.6680 31° Northeast 431 496 25,300 1,020 Climbing FlightAware
07:17PM 34.5760 -117.6220 31° Northeast 442 509 25,800 600 Climbing FlightAware
07:18PM 34.6510 -117.5690 30° Northeast 460 529 26,100 420 Climbing FlightAware
07:19PM 34.7190 -117.5110 35° Northeast 471 542 26,400 660 Climbing FlightAware
07:19PM 34.7680 -117.4280 54° Northeast 475 547 27,000 840 Climbing FlightAware
07:20PM 34.8260 -117.3320 54° Northeast 482 555 27,600 960 Climbing FlightAware
07:21PM 34.8820 -117.2380 54° Northeast 485 558 28,400 840 Climbing FlightAware
07:21PM 34.9360 -117.1460 54° Northeast 495 570 28,800 720 Climbing FlightAware
07:22PM 34.9930 -117.0500 54° Northeast 500 575 29,400 840 Climbing FlightAware
07:23PM 35.0490 -116.9540 55° Northeast 505 581 30,000 960 Climbing FlightAware
07:23PM 35.1120 -116.8480 54° Northeast 505 581 30,800 780 Climbing FlightAware
07:24PM 35.1640 -116.7600 54° Northeast 504 580 31,200 300 Climbing FlightAware
07:25PM 35.2070 -116.6880 54° Northeast 504 580 31,200 1,260 Level FlightAware
07:26PM 35.2870 -116.5490 55° Northeast 504 580 33,100 1,560 Climbing FlightAware
07:26PM 35.3410 -116.4560 55° Northeast 506 582 33,600 960 Climbing FlightAware
07:27PM 35.4330 -116.2960 55° Northeast 500 575 34,900 720 Climbing FlightAware
07:28PM 35.4900 -116.1970 55° Northeast 501 577 35,000 60 Climbing FlightAware
07:29PM 35.5390 -116.1130 54° Northeast 500 575 35,000  Level FlightAware
07:29PM 35.5800 -116.0420 55° Northeast 500 575 35,000  Level FlightAware
07:30PM 35.6520 -115.9160 55° Northeast 497 572 35,000  Level FlightAware
07:31PM 35.7030 -115.8270 55° Northeast 496 571 35,000  Level FlightAware
07:32PM 35.7560 -115.7340 55° Northeast 496 571 35,000  Level FlightAware
07:32PM 35.8140 -115.6320 55° Northeast 498 573 35,000  Level FlightAware
07:33PM 35.8750 -115.5240 55° Northeast 497 572 35,000  Level FlightAware
07:34PM 35.9250 -115.4340 56° Northeast 498 573 35,000  Level FlightAware
07:34PM 35.9820 -115.3330 55° Northeast 502 578 35,000  Level FlightAware
07:35PM 36.0360 -115.2370 55° Northeast 501 577 35,000  Level FlightAware
07:36PM 36.1000 -115.1340 52° Northeast 503 579 35,000  Level FlightAware
07:36PM 36.1580 -115.0610 45° Northeast 504 580 35,000  Level FlightAware
07:37PM 36.2050 -114.9930 49° Northeast 504 580 35,000  Level FlightAware
07:38PM 36.2380 -114.8850 69° East 504 580 35,000  Level FlightAware
07:38PM 36.2520 -114.8150 76° East 504 580 35,000  Level FlightAware
07:39PM 36.2810 -114.6530 77° East 503 579 35,000  Level FlightAware
07:40PM 36.3020 -114.5370 77° East 499 574 35,000  Level FlightAware
07:40PM 36.3220 -114.4270 77° East 498 573 35,000  Level FlightAware
07:41PM 36.3430 -114.3140 77° East 497 572 35,000  Level FlightAware
07:42PM 36.3630 -114.2060 77° East 495 570 35,000  Level FlightAware
07:42PM 36.3860 -114.0850 77° East 494 568 35,000  Level FlightAware
07:43PM 36.4140 -113.9410 76° East 495 570 35,000  Level FlightAware
07:44PM 36.4340 -113.8330 77° East 497 572 35,000  Level FlightAware
07:45PM 36.4590 -113.7040 76° East 500 575 35,000  Level FlightAware
07:45PM 36.4770 -113.6110 76° East 500 575 35,000  Level FlightAware
07:46PM 36.4990 -113.4970 76° East 501 577 35,000  Level FlightAware
07:47PM 36.5200 -113.3870 77° East 502 578 35,000  Level FlightAware
07:47PM 36.5380 -113.2830 78° East 499 574 35,000  Level FlightAware
07:48PM 36.5710 -113.1700 70° East 502 578 35,000  Level FlightAware
07:49PM 36.6370 -113.0770 48° Northeast 506 582 35,000  Level FlightAware
07:49PM 36.7070 -112.9960 43° Northeast 504 580 35,000  Level FlightAware
07:50PM 36.7820 -112.9100 43° Northeast 504 580 35,000  Level FlightAware
07:51PM 36.8460 -112.8490 37° Northeast 501 577 35,000  Level FlightAware
07:51PM 36.9500 -112.7840 27° Northeast 502 578 35,000  Level FlightAware
07:52PM 37.0220 -112.7370 28° Northeast 505 581 35,000  Level FlightAware
07:53PM 37.1020 -112.6860 27° Northeast 508 585 35,000  Level FlightAware
07:54PM 37.2140 -112.6140 27° Northeast 508 585 35,000  Level FlightAware
07:54PM 37.2780 -112.5730 27° Northeast 508 585 35,000  Level FlightAware
07:55PM 37.3630 -112.5180 27° Northeast 508 585 35,000  Level FlightAware
07:56PM 37.4270 -112.4770 27° Northeast 508 585 35,000  Level FlightAware
07:56PM 37.5130 -112.4220 27° Northeast 508 585 35,000  Level FlightAware
07:57PM 37.5770 -112.3810 27° Northeast 508 585 35,000  Level FlightAware
07:58PM 37.6410 -112.3400 27° Northeast 508 585 35,000  Level FlightAware
07:58PM 37.7260 -112.2850 27° Northeast 508 585 35,000  Level FlightAware
07:59PM 37.7900 -112.2430 27° Northeast 508 585 35,000  Level FlightAware
08:00PM 37.8540 -112.2020 27° Northeast 508 585 35,000  Level FlightAware
08:00PM 37.9400 -112.1470 27° Northeast 508 585 35,000  Level FlightAware
08:01PM 38.0040 -112.1050 27° Northeast 508 585 35,000  Level FlightAware
08:02PM 38.0890 -112.0500 27° Northeast 508 585 35,000  Level FlightAware
08:02PM 38.1530 -112.0090 27° Northeast 508 585 35,000  Level FlightAware
08:03PM 38.2210 -111.9650 27° Northeast 508 585 35,000 1,500 Level FlightAware
08:04PM 38.2208 -111.3761 27° Northeast 521 600 37,000 1,140 Climbing Denver Center
08:05PM 38.3214 -111.1956 55° Northeast 521 600 37,000  Level Denver Center
08:06PM 38.4058 -111.0461 54° Northeast 520 598 37,000  Level Denver Center
08:07PM 38.4947 -110.8872 54° Northeast 522 601 37,000  Level Denver Center
08:08PM 38.5722 -110.7400 56° Northeast 522 601 37,000  Level Denver Center
08:09PM 38.6531 -110.5950 54° Northeast 523 602 37,000  Level Denver Center
08:10PM 38.7475 -110.4261 54° Northeast 522 601 37,000  Level Denver Center
08:11PM 38.8286 -110.2806 54° Northeast 523 602 37,000  Level Denver Center
08:12PM 38.9200 -110.1072 56° Northeast 524 603 37,000  Level Denver Center
08:13PM 39.0003 -109.9597 55° Northeast 527 606 37,000  Level Denver Center
08:14PM 39.0933 -109.7878 55° Northeast 526 605 37,000  Level Denver Center
08:15PM 39.1733 -109.6397 55° Northeast 524 603 37,000  Level Denver Center
08:16PM 39.2650 -109.4667 56° Northeast 522 601 37,000  Level Denver Center
08:21PM 39.7010 -108.6190 56° Northeast 539 620 37,000  Level FlightAware
08:22PM 39.7290 -108.5150 71° East 540 621 37,000  Level FlightAware
08:23PM 39.7760 -108.3440 70° East 537 618 37,000  Level FlightAware
08:24PM 39.8070 -108.2310 70° East 538 619 37,000  Level FlightAware
08:24PM 39.8380 -108.1160 71° East 538 619 37,000  Level FlightAware
08:25PM 39.8700 -108.0030 70° East 538 619 37,000  Level FlightAware
08:26PM 39.9050 -107.8780 70° East 538 619 37,000  Level FlightAware
08:26PM 39.9310 -107.7820 71° East 538 619 37,000  Level FlightAware
08:27PM 39.9590 -107.6840 70° East 538 619 37,000  Level FlightAware
08:28PM 40.0070 -107.4880 72° East 539 620 37,000  Level FlightAware
08:28PM 40.0460 -107.3430 71° East 540 621 37,000  Level FlightAware
08:29PM 40.0790 -107.2140 71° East 541 623 37,000  Level FlightAware
08:30PM 40.1160 -107.0750 71° East 541 623 37,000  Level FlightAware
08:30PM 40.1440 -106.9680 71° East 541 623 37,000  Level FlightAware
08:31PM 40.1790 -106.8330 71° East 543 625 37,000  Level FlightAware
08:32PM 40.2270 -106.6440 72° East 543 625 37,000  Level FlightAware
08:33PM 40.2510 -106.5520 71° East 544 626 37,000  Level FlightAware
08:34PM 40.2940 -106.3850 71° East 547 629 37,000  Level FlightAware
08:34PM 40.3290 -106.2460 72° East 548 631 37,000  Level FlightAware
08:35PM 40.3610 -106.1180 72° East 548 631 37,000  Level FlightAware
08:36PM 40.3970 -105.9740 72° East 548 631 37,000  Level FlightAware
08:36PM 40.4220 -105.8720 72° East 546 628 37,000  Level FlightAware
08:37PM 40.4540 -105.7450 72° East 543 625 37,000  Level FlightAware
08:38PM 40.4880 -105.6080 72° East 545 627 37,000  Level FlightAware
08:38PM 40.5130 -105.5050 72° East 547 629 37,000  Level FlightAware
08:39PM 40.5470 -105.3640 72° East 545 627 37,000  Level FlightAware
08:40PM 40.5780 -105.2360 72° East 543 625 37,000  Level FlightAware
08:40PM 40.6050 -105.1230 72° East 541 623 37,000  Level FlightAware
08:41PM 40.6380 -104.9860 72° East 542 624 37,000  Level FlightAware
08:42PM 40.6680 -104.8600 73° East 542 624 37,000  Level FlightAware
08:42PM 40.7010 -104.7210 73° East 544 626 37,000  Level FlightAware
08:43PM 40.7310 -104.5940 73° East 544 626 37,000  Level FlightAware
08:44PM 40.7640 -104.4550 73° East 541 623 37,000  Level FlightAware
08:44PM 40.7930 -104.3320 73° East 540 621 37,000  Level FlightAware
08:45PM 40.8190 -104.2160 73° East 539 620 37,000  Level FlightAware
08:46PM 40.8500 -104.0840 73° East 541 623 37,000  Level FlightAware
08:46PM 40.8820 -103.9450 73° East 542 624 37,000  Level FlightAware
08:47PM 40.9100 -103.8210 73° East 544 626 37,000  Level FlightAware
08:48PM 40.9410 -103.6850 73° East 546 628 37,000  Level FlightAware
08:48PM 40.9700 -103.5570 73° East 548 631 37,000  Level FlightAware
08:49PM 41.0010 -103.4180 73° East 548 631 37,000  Level FlightAware
08:50PM 41.0290 -103.2890 74° East 550 633 37,000  Level FlightAware
08:50PM 41.0510 -103.1910 73° East 550 633 37,000  Level FlightAware
08:51PM 41.0860 -103.0310 74° East 544 626 37,000  Level FlightAware
08:52PM 41.1110 -102.9160 74° East 543 625 37,000  Level FlightAware
08:52PM 41.1360 -102.7880 75° East 542 624 37,000  Level FlightAware
08:53PM 41.1640 -102.6460 75° East 541 623 37,000  Level FlightAware
08:54PM 41.1890 -102.5220 75° East 537 618 37,000  Level FlightAware
08:55PM 41.2170 -102.3790 75° East 533 613 37,000  Level FlightAware
08:55PM 41.2420 -102.2510 75° East 533 613 37,000  Level FlightAware
08:56PM 41.2690 -102.1140 75° East 530 610 37,000  Level FlightAware
08:57PM 41.2920 -101.9930 76° East 528 608 37,000  Level FlightAware
08:57PM 41.3170 -101.8630 76° East 526 605 37,000  Level FlightAware
08:58PM 41.3430 -101.7320 75° East 528 608 37,000  Level FlightAware
08:59PM 41.3620 -101.6360 75° East 528 608 37,000  Level FlightAware
08:59PM 41.3920 -101.4690 76° East 528 608 37,000  Level FlightAware
09:00PM 41.4250 -101.3060 75° East 528 608 37,000  Level FlightAware
09:01PM 41.4440 -101.2100 75° East 528 608 37,000  Level FlightAware
09:02PM 41.4760 -101.0490 75° East 528 608 37,000  Level FlightAware
09:03PM 41.4960 -100.9500 75° East 528 608 37,000  Level FlightAware
09:03PM 41.5220 -100.8210 75° East 528 608 37,000  Level FlightAware
09:04PM 41.5410 -100.7250 75° East 528 608 37,000  Level FlightAware
09:05PM 41.5600 -100.6340 74° East 528 608 37,000  Level FlightAware
09:05PM 41.5850 -100.5050 75° East 528 608 37,000  Level FlightAware
09:06PM 41.6050 -100.4090 74° East 528 608 37,000  Level FlightAware
09:07PM 41.6240 -100.3120 75° East 528 608 37,000  Level FlightAware
09:07PM 41.6500 -100.1800 75° East 528 608 37,000  Level FlightAware
09:08PM 41.6700 -100.0840 74° East 528 608 37,000  Level FlightAware
09:09PM 41.6950 -99.9550 75° East 528 608 37,000  Level FlightAware
09:09PM 41.9883 -99.7514 75° East 521 600 37,000  Level Minneapolis Center
09:10PM 42.0647 -99.5850 58° Northeast 520 598 37,000  Level Minneapolis Center
09:11PM 42.1408 -99.4183 58° Northeast 520 598 37,000  Level Minneapolis Center
09:13PM 42.2303 -99.2200 59° Northeast 519 597 37,000  Level Denver Center
09:13PM 42.2917 -99.0861 58° Northeast 513 590 37,000  Level Minneapolis Center
09:14PM 42.3797 -98.8900 59° Northeast 506 582 37,000  Level Minneapolis Center
09:16PM 42.4478 -98.7200 61° Northeast 516 594 37,000  Level Minneapolis Center
09:21PM 42.6110 -97.6590 61° Northeast 549 632 37,000  Level FlightAware
09:21PM 42.6260 -97.5430 80° East 554 638 37,000  Level FlightAware
09:22PM 42.6450 -97.3930 80° East 556 640 37,000  Level FlightAware
09:23PM 42.6680 -97.2180 80° East 554 638 37,000  Level FlightAware
09:24PM 42.6840 -97.0900 80° East 554 638 37,000  Level FlightAware
09:25PM 42.7100 -96.8840 80° East 555 639 37,000  Level FlightAware
09:25PM 42.7230 -96.7820 80° East 555 639 37,000  Level FlightAware
09:26PM 42.7430 -96.6150 81° East 553 636 37,000  Level FlightAware
09:27PM 42.7610 -96.4700 80° East 553 636 37,000  Level FlightAware
09:27PM 42.7740 -96.3580 81° East 552 635 37,000  Level FlightAware
09:28PM 42.7920 -96.2090 81° East 551 634 37,000  Level FlightAware
09:29PM 42.8080 -96.0710 81° East 550 633 37,000  Level FlightAware
09:29PM 42.8260 -95.9200 81° East 550 633 37,000  Level FlightAware
09:30PM 42.8480 -95.7280 81° East 551 634 37,000  Level FlightAware
09:31PM 42.8630 -95.5900 82° East 550 633 37,000  Level FlightAware
09:32PM 42.8800 -95.4420 81° East 550 633 37,000  Level FlightAware
09:32PM 42.8950 -95.3030 82° East 550 633 37,000  Level FlightAware
09:33PM 42.9120 -95.1530 81° East 549 632 37,000  Level FlightAware
09:34PM 42.9260 -95.0210 82° East 550 633 37,000  Level FlightAware
09:34PM 42.9420 -94.8660 82° East 552 635 37,000  Level FlightAware
09:35PM 42.9570 -94.7270 82° East 553 636 37,000  Level FlightAware
09:36PM 42.9710 -94.5890 82° East 553 636 37,000  Level FlightAware
09:36PM 42.9830 -94.4720 82° East 552 635 37,000  Level FlightAware
09:37PM 43.0000 -94.3120 82° East 551 634 37,000  Level FlightAware
09:38PM 43.0130 -94.1810 82° East 550 633 37,000  Level FlightAware
09:38PM 43.0280 -94.0310 82° East 547 629 37,000  Level FlightAware
09:39PM 43.0420 -93.8850 82° East 549 632 37,000  Level FlightAware
09:40PM 43.0570 -93.7290 82° East 550 633 37,000  Level FlightAware
09:41PM 43.0700 -93.5930 82° East 550 633 37,000  Level FlightAware
09:41PM 43.0800 -93.4820 83° East 550 633 37,000  Level FlightAware
09:42PM 43.1020 -93.3320 79° East 548 631 37,000  Level FlightAware
09:43PM 43.1350 -93.2010 71° East 548 631 37,000  Level FlightAware
09:43PM 43.1790 -93.0620 66° East 549 632 37,000  Level FlightAware
09:44PM 43.2220 -92.9200 67° East 550 633 37,000  Level FlightAware
09:45PM 43.2620 -92.7910 67° East 551 634 37,000  Level FlightAware
09:45PM 43.3060 -92.6490 67° East 552 635 37,000  Level FlightAware
09:46PM 43.3380 -92.5440 67° East 553 636 37,000  Level FlightAware
09:47PM 43.3820 -92.4010 67° East 554 638 37,000  Level FlightAware
09:47PM 43.4210 -92.2710 68° East 554 638 37,000  Level FlightAware
09:48PM 43.4540 -92.1600 68° East 553 636 37,000  Level FlightAware
09:49PM 43.4990 -92.0100 67° East 554 638 37,000  Level FlightAware
09:49PM 43.5370 -91.8820 68° East 555 639 37,000  Level FlightAware
09:50PM 43.5700 -91.7710 68° East 555 639 37,000  Level FlightAware
09:51PM 43.6110 -91.6340 68° East 554 638 37,000  Level FlightAware
09:51PM 43.6490 -91.5030 68° East 554 638 37,000  Level FlightAware
09:52PM 43.6920 -91.3540 68° East 555 639 37,000  Level FlightAware
09:53PM 43.7310 -91.2200 68° East 557 641 37,000  Level FlightAware
09:53PM 43.7720 -91.0790 68° East 558 642 37,000  Level FlightAware
09:54PM 43.8120 -90.9410 68° East 557 641 37,000  Level FlightAware
09:55PM 43.8500 -90.8070 68° East 555 639 37,000  Level FlightAware
09:55PM 43.8830 -90.6910 68° East 556 640 37,000  Level FlightAware
09:56PM 43.9250 -90.5430 68° East 554 638 37,000  Level FlightAware
09:57PM 43.9580 -90.4250 69° East 555 639 37,000  Level FlightAware
09:57PM 43.9950 -90.2920 69° East 557 641 37,000  Level FlightAware
09:58PM 44.0360 -90.1440 69° East 557 641 37,000  Level FlightAware
09:59PM 44.0700 -90.0200 69° East 556 640 37,000  Level FlightAware
09:59PM 44.1050 -89.8930 69° East 556 640 37,000  Level FlightAware
10:00PM 44.1530 -89.7170 69° East 557 641 37,000  Level FlightAware
10:01PM 44.1920 -89.5760 69° East 558 642 37,000  Level FlightAware
10:02PM 44.2260 -89.4500 69° East 561 646 37,000  Level FlightAware
10:02PM 44.2670 -89.2960 70° East 560 644 37,000  Level FlightAware
10:03PM 44.3000 -89.1720 70° East 560 644 37,000  Level FlightAware
10:04PM 44.3290 -89.0620 70° East 559 643 37,000  Level FlightAware
10:04PM 44.3750 -88.8890 70° East 558 642 37,000  Level FlightAware
10:05PM 44.4040 -88.7790 70° East 558 642 37,000  Level FlightAware
10:06PM 44.4420 -88.6340 70° East 559 643 37,000  Level FlightAware
10:06PM 44.4760 -88.5030 70° East 561 646 37,000  Level FlightAware
10:07PM 44.5090 -88.3740 70° East 563 648 37,000  Level FlightAware
10:08PM 44.5420 -88.2250 73° East 567 652 37,000  Level FlightAware
10:08PM 44.5610 -88.0690 80° East 570 656 37,000  Level FlightAware
10:09PM 44.5690 -87.9270 85° East 569 655 37,000  Level FlightAware
10:10PM 44.5770 -87.7720 86° East 569 655 37,000  Level FlightAware
10:10PM 44.5850 -87.6150 86° East 570 656 37,000  Level FlightAware
10:13PM 44.6100 -87.1090 86° East 570 656 37,000  Level FlightAware
10:14PM 44.6190 -86.8740 87° East 567 652 37,000  Level FlightAware
10:14PM 44.6260 -86.7110 86° East 566 651 37,000  Level FlightAware
10:15PM 44.6340 -86.5650 86° East 567 652 37,000  Level FlightAware
10:16PM 44.6700 -86.4200 71° East 567 652 37,000  Level FlightAware
10:16PM 44.7020 -86.2920 71° East 569 655 37,000  Level FlightAware
10:17PM 44.7370 -86.1530 70° East 569 655 37,000  Level FlightAware
10:18PM 44.7770 -85.9950 70° East 569 655 37,000  Level FlightAware
10:19PM 44.8100 -85.8660 70° East 570 656 37,000  Level FlightAware
10:19PM 44.8480 -85.7140 71° East 572 658 37,000  Level FlightAware
10:20PM 44.8830 -85.5720 71° East 572 658 37,000  Level FlightAware
10:21PM 44.9210 -85.4170 71° East 575 662 37,000  Level FlightAware
10:21PM 44.9590 -85.2620 71° East 577 664 37,000  Level FlightAware
10:22PM 44.9880 -85.1430 71° East 576 663 37,000  Level FlightAware
10:23PM 45.0360 -84.9440 71° East 573 659 37,000  Level FlightAware
10:24PM 45.0730 -84.7900 71° East 570 656 37,000  Level FlightAware
10:24PM 45.1000 -84.6760 71° East 570 656 37,000  Level FlightAware
10:25PM 45.1370 -84.5180 72° East 571 657 37,000  Level FlightAware
10:26PM 45.1700 -84.3800 71° East 573 659 37,000  Level FlightAware
10:26PM 45.2070 -84.2210 72° East 573 659 37,000  Level FlightAware
10:27PM 45.2400 -84.0780 72° East 573 659 37,000  Level FlightAware
10:28PM 45.2760 -83.9250 71° East 573 659 37,000  Level FlightAware
10:28PM 45.3090 -83.7800 72° East 573 659 37,000  Level FlightAware
10:29PM 45.3440 -83.6230 72° East 577 664 37,000  Level FlightAware
10:30PM 45.3780 -83.4750 72° East 578 665 37,000  Level FlightAware
10:30PM 45.4120 -83.3230 72° East 580 667 37,000  Level FlightAware
10:31PM 45.4460 -83.1700 72° East 580 667 37,000  Level FlightAware
10:32PM 45.4780 -83.0250 72° East 579 666 37,000  Level FlightAware
10:33PM 45.5130 -82.8660 73° East 578 665 37,000  Level FlightAware
10:33PM 45.5420 -82.7330 73° East 576 663 37,000  Level FlightAware
10:34PM 45.5720 -82.5910 73° East 577 664 37,000  Level FlightAware
10:35PM 45.6070 -82.4310 73° East 577 664 37,000  Level FlightAware
10:35PM 45.6370 -82.2900 73° East 579 666 37,000  Level FlightAware
10:36PM 45.6710 -82.1260 73° East 579 666 37,000  Level FlightAware
10:37PM 45.7040 -81.9710 73° East 580 667 37,000  Level FlightAware
10:37PM 45.7370 -81.8140 73° East 579 666 37,000  Level FlightAware
10:38PM 45.7650 -81.6760 74° East 581 669 37,000  Level FlightAware
10:39PM 45.7940 -81.5340 74° East 580 667 37,000  Level FlightAware
10:39PM 45.8260 -81.3810 73° East 582 670 37,000  Level FlightAware
10:40PM 45.8570 -81.2250 74° East 584 672 37,000  Level FlightAware
10:41PM 45.8910 -81.0580 74° East 587 676 37,000  Level FlightAware
10:41PM 45.9200 -80.9100 74° East 585 673 37,000  Level FlightAware
10:42PM 45.9530 -80.7450 74° East 585 673 37,000  Level FlightAware
10:43PM 45.9840 -80.5850 74° East 585 673 37,000  Level FlightAware
10:44PM 46.0180 -80.4080 74° East 584 672 37,000  Level FlightAware
10:44PM 46.0470 -80.2590 74° East 583 671 37,000  Level FlightAware
10:45PM 46.0730 -80.1230 75° East 583 671 37,000  Level FlightAware
10:46PM 46.1030 -79.9630 75° East 583 671 37,000  Level FlightAware
10:46PM 46.1320 -79.8090 75° East 584 672 37,000  Level FlightAware
10:47PM 46.1610 -79.6520 75° East 583 671 37,000  Level FlightAware
10:48PM 46.1920 -79.4870 75° East 584 672 37,000  Level FlightAware
10:48PM 46.2190 -79.3370 75° East 585 673 37,000  Level FlightAware
10:49PM 46.2500 -79.1710 75° East 587 676 37,000  Level FlightAware
10:50PM 46.2740 -79.0360 76° East 588 677 37,000  Level FlightAware
10:50PM 46.3010 -78.8850 75° East 588 677 37,000  Level FlightAware
10:51PM 46.3290 -78.7250 76° East 585 673 37,000  Level FlightAware
10:52PM 46.3550 -78.5800 75° East 585 673 37,000  Level FlightAware
10:52PM 46.3810 -78.4300 76° East 587 676 37,000  Level FlightAware
10:53PM 46.4080 -78.2750 76° East 590 679 37,000  Level FlightAware
10:54PM 46.4350 -78.1170 76° East 592 681 37,000  Level FlightAware
10:55PM 46.4720 -77.8990 76° East 593 682 37,000  Level FlightAware
10:55PM 46.4920 -77.7810 76° East 593 682 37,000  Level FlightAware
10:56PM 46.5190 -77.6230 76° East 593 682 37,000  Level FlightAware
10:57PM 46.5500 -77.4270 77° East 594 684 37,000  Level FlightAware
10:57PM 46.5750 -77.2720 77° East 592 681 37,000  Level FlightAware
10:58PM 46.6000 -77.1240 76° East 592 681 37,000  Level FlightAware
10:59PM 46.6230 -76.9740 77° East 590 679 37,000  Level FlightAware
10:59PM 46.6450 -76.8360 77° East 589 678 37,000  Level FlightAware
11:00PM 46.6730 -76.6590 77° East 591 680 37,000  Level FlightAware
11:01PM 46.7050 -76.4470 78° East 592 681 37,000  Level FlightAware
11:02PM 46.7330 -76.2690 77° East 593 682 37,000  Level FlightAware
11:03PM 46.7600 -76.0900 78° East 592 681 37,000  Level FlightAware
11:03PM 46.7900 -75.8860 78° East 593 682 37,000  Level FlightAware
11:04PM 46.8100 -75.7510 78° East 596 686 37,000  Level FlightAware
11:05PM 46.8360 -75.5800 77° East 597 687 37,000  Level FlightAware
11:05PM 46.8560 -75.4360 78° East 595 685 37,000  Level FlightAware
11:06PM 46.8780 -75.2870 78° East 595 685 37,000  Level FlightAware
11:07PM 46.8970 -75.1490 79° East 595 685 37,000  Level FlightAware
11:07PM 46.9240 -74.9620 78° East 594 684 37,000  Level FlightAware
11:08PM 46.9490 -74.7840 78° East 597 687 37,000  Level FlightAware
11:09PM 46.9790 -74.5650 79° East 598 688 37,000  Level FlightAware
11:10PM 47.0000 -74.4040 79° East 600 690 37,000  Level FlightAware
11:10PM 47.0210 -74.2480 79° East 598 688 37,000  Level FlightAware
11:13PM 47.0980 -73.7000 78° East 596 686 37,000  Level FlightAware
11:14PM 47.1300 -73.4760 78° East 594 684 37,000  Level FlightAware
11:14PM 47.1490 -73.3360 79° East 595 685 37,000  Level FlightAware
11:15PM 47.1710 -73.1790 78° East 598 688 37,000  Level FlightAware
11:16PM 47.1950 -73.0020 79° East 599 689 37,000  Level FlightAware
11:16PM 47.2140 -72.8620 79° East 598 688 37,000  Level FlightAware
11:17PM 47.2350 -72.7080 79° East 597 687 37,000  Level FlightAware
11:18PM 47.2650 -72.4760 79° East 600 690 37,000  Level FlightAware
11:18PM 47.2860 -72.3170 79° East 604 695 37,000  Level FlightAware
11:19PM 47.3170 -72.0740 79° East 604 695 37,000  Level FlightAware
11:20PM 47.3100 -72.1290 259° West 602 693 37,000  Level FlightAware
11:21PM 47.3630 -71.7070 79° East 599 689 37,000  Level FlightAware
11:22PM 47.3790 -71.5830 79° East 599 689 37,000  Level FlightAware
11:22PM 47.4030 -71.3860 80° East 600 690 37,000  Level FlightAware
11:23PM 47.4200 -71.2420 80° East 601 692 37,000  Level FlightAware
11:24PM 47.4410 -71.0620 80° East 601 692 37,000  Level FlightAware
11:24PM 47.4610 -70.8940 80° East 603 694 37,000  Level FlightAware
11:25PM 47.4800 -70.7330 80° East 604 695 37,000  Level FlightAware
11:26PM 47.4990 -70.5580 81° East 605 696 37,000  Level FlightAware
11:26PM 47.5160 -70.4120 80° East 604 695 37,000  Level FlightAware
11:27PM 47.5370 -70.2240 81° East 602 693 37,000  Level FlightAware
11:28PM 47.5580 -70.0310 81° East 603 694 37,000  Level FlightAware
11:28PM 47.5750 -69.8680 81° East 602 693 37,000  Level FlightAware
11:29PM 47.5940 -69.6970 81° East 601 692 37,000  Level FlightAware
11:30PM 47.6110 -69.5260 82° East 600 690 37,000  Level FlightAware
11:31PM 47.6280 -69.3630 81° East 603 694 37,000  Level FlightAware
11:31PM 47.6460 -69.1920 81° East 604 695 37,000  Level FlightAware
11:32PM 47.6290 -69.3560 261° West 604 695 37,000  Level FlightAware
11:33PM 47.6430 -69.2310 81° East 604 695 37,000  Level FlightAware
11:33PM 47.6600 -69.0630 81° East 604 695 37,000  Level FlightAware
11:34PM 47.6740 -68.9380 81° East 604 695 37,000  Level FlightAware
11:35PM 47.6920 -68.7710 81° East 604 695 37,000  Level FlightAware
11:35PM 47.6190 -69.4500 261° West 37,000  Level FlightAware
11:36PM 47.7510 -68.1140 81° East 601 692 37,000  Level FlightAware
11:36PM 47.7700 -67.9800 78° East 601 692 37,000  Level FlightAware
11:37PM 47.7940 -67.8140 78° East 601 692 37,000  Level FlightAware
11:38PM 47.8110 -67.6910 78° East 601 692 37,000  Level FlightAware
11:39PM 47.8350 -67.5250 78° East 601 692 37,000  Level FlightAware
11:39PM 47.8530 -67.4010 78° East 601 692 37,000  Level FlightAware
11:40PM 47.8700 -67.2770 78° East 601 692 37,000  Level FlightAware
11:41PM 47.8940 -67.1120 78° East 601 692 37,000  Level FlightAware
11:41PM 47.9110 -66.9880 78° East 601 692 37,000  Level FlightAware
11:42PM 47.9350 -66.8220 78° East 601 692 37,000  Level FlightAware
11:43PM 47.9530 -66.6980 78° East 601 692 37,000  Level FlightAware
11:43PM 47.9770 -66.5290 78° East 601 692 37,000  Level FlightAware
11:44PM 47.9940 -66.4040 78° East 601 692 37,000  Level FlightAware
11:45PM 48.0180 -66.2380 78° East 601 692 37,000  Level FlightAware
11:45PM 48.0360 -66.1100 78° East 601 692 37,000  Level FlightAware
11:46PM 48.0667 -65.6000 78° East 580 667 37,000  Level Moncton Center
11:47PM 48.0833 -65.3500 84° East 590 679 37,000  Level Moncton Center
11:48PM 48.1167 -65.1000 79° East 590 679 37,000  Level Moncton Center
11:49PM 48.1333 -64.8667 84° East 590 679 37,000  Level Moncton Center
11:50PM 48.1667 -64.6167 79° East 580 667 37,000  Level Moncton Center
11:51PM 48.1833 -64.4000 83° East 580 667 37,000  Level Moncton Center
11:52PM 48.2167 -64.1167 80° East 580 667 37,000  Level Moncton Center
11:53PM 48.2333 -63.9000 83° East 590 679 37,000  Level Moncton Center
11:54PM 48.2667 -63.6500 79° East 590 679 37,000  Level Moncton Center
11:55PM 48.2833 -63.4167 84° East 580 667 37,000  Level Moncton Center
11:56PM 48.3000 -63.1833 84° East 570 656 37,000  Level Moncton Center
11:57PM 48.3333 -62.9333 79° East 570 656 37,000  Level Moncton Center
11:58PM 48.3333 -62.7167 90° East 570 656 37,000  Level Moncton Center
11:59PM 48.3667 -62.4500 79° East 580 667 37,000  Level Moncton Center
12:00AM 48.3833 -62.2333 83° East 580 667 37,000  Level Moncton Center
12:01AM 48.4167 -61.9833 79° East 590 679 37,000  Level Moncton Center
12:02AM 48.4167 -61.7167 90° East 580 667 37,000  Level Moncton Center
12:03AM 48.4500 -61.5000 77° East 580 667 37,000  Level Moncton Center
12:04AM 48.4667 -61.2333 85° East 580 667 37,000  Level Moncton Center
12:10AM 48.5670 -59.9300 85° East 585 673 37,000  Level FlightAware
12:10AM 48.5770 -59.7670 85° East 584 672 37,000  Level FlightAware
12:13AM 48.6100 -59.1950 85° East 563 648 37,000  Level FlightAware
12:14AM 48.6230 -58.9690 85° East 562 647 37,000  Level FlightAware
12:15AM 48.6320 -58.7840 86° East 563 648 37,000  Level FlightAware
12:15AM 48.6400 -58.6300 85° East 563 648 37,000  Level FlightAware
12:16AM 48.6490 -58.4530 86° East 563 648 37,000  Level FlightAware
12:17AM 48.6570 -58.2990 85° East 562 647 37,000  Level FlightAware
12:17AM 48.6640 -58.1440 86° East 561 646 37,000  Level FlightAware
12:18AM 48.6710 -58.0010 86° East 562 647 37,000 120 Level FlightAware
12:19AM 48.6780 -57.8470 86° East 563 648 37,200 660 Climbing FlightAware
12:19AM 48.6850 -57.6720 86° East 553 636 38,000 420 Climbing FlightAware
12:20AM 48.6940 -57.4630 86° East 554 638 38,000  Level FlightAware
12:21AM 48.7010 -57.2850 87° East 558 642 38,000  Level FlightAware
12:22AM 48.7110 -57.1360 84° East 560 644 38,000  Level FlightAware
12:22AM 48.7140 -57.0950 84° East 559 643 38,000  Level FlightAware
12:23AM 48.7330 -56.8390 83° East 556 640 38,000  Level FlightAware
12:24AM 48.7450 -56.6640 84° East 557 641 38,000  Level FlightAware
12:24AM 48.7550 -56.5080 84° East 560 644 38,000  Level FlightAware
12:25AM 48.7660 -56.3520 84° East 558 642 38,000  Level FlightAware
12:26AM 48.7760 -56.1960 84° East 556 640 38,000  Level FlightAware
12:26AM 48.7860 -56.0240 85° East 555 639 38,000  Level FlightAware
12:27AM 48.7960 -55.8690 84° East 552 635 38,000  Level FlightAware
12:28AM 48.8050 -55.7170 85° East 550 633 38,000  Level FlightAware
12:28AM 48.8130 -55.5810 85° East 550 633 38,000  Level FlightAware
12:29AM 48.8230 -55.4090 85° East 550 633 38,000  Level FlightAware
12:30AM 48.8310 -55.2550 85° East 549 632 38,000  Level FlightAware
12:30AM 48.8400 -55.1030 85° East 548 631 38,000  Level FlightAware
12:31AM 48.8480 -54.9500 85° East 548 631 38,000  Level FlightAware
12:32AM 48.8560 -54.7980 85° East 547 629 38,000  Level FlightAware
12:32AM 48.8640 -54.6250 86° East 545 627 38,000  Level FlightAware
12:33AM 48.8720 -54.4720 85° East 544 626 38,000  Level FlightAware
12:34AM 48.8790 -54.3190 86° East 546 628 38,000  Level FlightAware
12:35AM 48.8870 -54.1550 86° East 544 626 38,000  Level FlightAware
12:35AM 48.8930 -54.0010 87° East 541 623 38,000  Level FlightAware
12:36AM 48.9010 -53.8300 86° East 540 621 38,000  Level FlightAware
12:37AM 48.9070 -53.6750 87° East 542 624 38,000  Level FlightAware
12:37AM 48.9140 -53.5050 86° East 540 621 38,000  Level FlightAware
12:38AM 48.9200 -53.3550 86° East 539 620 38,000  Level FlightAware
12:39AM 48.9260 -53.2040 86° East 537 618 38,000  Level FlightAware
12:39AM 48.9310 -53.0490 87° East 538 619 38,000  Level FlightAware
12:40AM 48.9370 -52.8860 87° East 541 623 38,000  Level FlightAware
12:41AM 48.9430 -52.7130 87° East 542 624 38,000  Level FlightAware
12:42AM 48.9480 -52.5620 87° East 544 626 38,000  Level FlightAware
12:42AM 48.9520 -52.4120 88° East 545 627 38,000  Level FlightAware
12:43AM 48.9570 -52.2400 87° East 545 627 38,000  Level FlightAware
12:44AM 48.9620 -52.0910 87° East 544 626 38,000  Level FlightAware
12:44AM 48.9660 -51.9310 88° East 543 625 38,000  Level FlightAware
12:45AM 48.9700 -51.7580 88° East 545 627 38,000  Level FlightAware
12:46AM 48.9750 -51.5600 88° East 544 626 38,000  Level FlightAware
12:47AM 48.9790 -51.3840 88° East 544 626 38,000  Level FlightAware
12:47AM 48.9820 -51.2280 88° East 544 626 38,000  Level FlightAware
12:49AM 48.9870 -50.9740 88° East 544 626 38,000  Level FlightAware
12:49AM 48.9890 -50.8470 89° East 544 626 38,000  Level FlightAware
12:50AM 48.9920 -50.6840 88° East 38,000  Level FlightAware
12:51AM 48.9970 -50.3070 89° East 38,000  Level FlightAware
12:53AM 48.9990 -50.0120 89° East 544 626 38,000  Level FlightAware
12:53AM 48.9990 -49.8950 90° East 544 626 38,000  Level FlightAware
12:54AM 48.9990 -49.7770 90° East 544 626 38,000  Level FlightAware
12:55AM 48.9990 -49.5750 90° East 544 626 38,000  Level FlightAware
12:56AM 48.9990 -49.4580 90° East 544 626 38,000  Level FlightAware
12:56AM 48.9990 -49.3010 90° East 544 626 38,000  Level FlightAware
12:57AM 48.9990 -49.1840 90° East 544 626 38,000  Level FlightAware
12:58AM 48.9990 -48.9880 90° East 544 626 38,000  Level FlightAware
12:59AM 48.9990 -48.8280 90° East 544 626 38,000  Level FlightAware
12:59AM 48.9990 -48.7080 90° East 544 626 38,000  Level FlightAware
01:00AM 48.9990 -48.5900 90° East 544 626 38,000  Level FlightAware
01:01AM 48.9990 -48.4340 90° East 544 626 38,000  Level FlightAware
01:01AM 48.9990 -48.3130 90° East 544 626 38,000  Level FlightAware
01:02AM 48.9990 -48.1570 90° East 544 626 38,000  Level FlightAware
01:05AM 49.0489 -47.6644 81° East  Level FlightAware Approximate
01:06AM 49.0677 -47.4387 88° East  Level FlightAware Approximate
01:07AM 49.0726 -47.2171 88° East  Level FlightAware Approximate
01:08AM 49.0771 -46.9954 88° East  Level FlightAware Approximate
01:09AM 49.0811 -46.7737 88° East  Level FlightAware Approximate
01:10AM 49.0847 -46.5520 88° East  Level FlightAware Approximate
01:11AM 49.0879 -46.3302 89° East  Level FlightAware Approximate
01:12AM 49.0907 -46.1084 89° East  Level FlightAware Approximate
01:13AM 49.0931 -45.8866 89° East  Level FlightAware Approximate
01:14AM 49.0950 -45.6648 89° East  Level FlightAware Approximate
01:15AM 49.0965 -45.4429 89° East  Level FlightAware Approximate
01:16AM 49.0976 -45.2211 89° East  Level FlightAware Approximate
01:17AM 49.0982 -44.9992 90° East  Level FlightAware Approximate
01:18AM 49.0984 -44.7773 90° East  Level FlightAware Approximate
01:19AM 49.0982 -44.5555 90° East  Level FlightAware Approximate
01:20AM 49.0976 -44.3336 90° East  Level FlightAware Approximate
01:21AM 49.0966 -44.1117 90° East  Level FlightAware Approximate
01:22AM 49.0951 -43.8899 90° East  Level FlightAware Approximate
01:23AM 49.0932 -43.6680 91° East  Level FlightAware Approximate
01:24AM 49.0909 -43.4462 91° East  Level FlightAware Approximate
01:25AM 49.0881 -43.2244 91° East  Level FlightAware Approximate
01:26AM 49.0849 -43.0027 91° East  Level FlightAware Approximate
01:27AM 49.0813 -42.7809 91° East  Level FlightAware Approximate
01:28AM 49.0773 -42.5592 92° East  Level FlightAware Approximate
01:29AM 49.0728 -42.3375 92° East  Level FlightAware Approximate
01:30AM 49.0680 -42.1159 92° East  Level FlightAware Approximate
01:31AM 49.0627 -41.8943 92° East  Level FlightAware Approximate
01:32AM 49.0570 -41.6728 92° East  Level FlightAware Approximate
01:33AM 49.0508 -41.4513 92° East  Level FlightAware Approximate
01:34AM 49.0442 -41.2299 93° East  Level FlightAware Approximate
01:35AM 49.0373 -41.0085 93° East  Level FlightAware Approximate
01:36AM 49.0298 -40.7873 93° East  Level FlightAware Approximate
01:37AM 49.0220 -40.5660 93° East  Level FlightAware Approximate
01:38AM 49.0137 -40.3449 93° East  Level FlightAware Approximate
01:39AM 49.0051 -40.1238 93° East  Level FlightAware Approximate
01:40AM 49.0138 -39.9049 77° East  Level FlightAware Approximate
01:41AM 49.0450 -39.6885 78° East  Level FlightAware Approximate
01:42AM 49.0757 -39.4718 78° East  Level FlightAware Approximate
01:43AM 49.1061 -39.2548 78° East  Level FlightAware Approximate
01:44AM 49.1360 -39.0376 78° East  Level FlightAware Approximate
01:45AM 49.1656 -38.8201 78° East  Level FlightAware Approximate
01:46AM 49.1947 -38.6024 78° East  Level FlightAware Approximate
01:47AM 49.2234 -38.3844 79° East  Level FlightAware Approximate
01:48AM 49.2517 -38.1662 79° East  Level FlightAware Approximate
01:49AM 49.2796 -37.9477 79° East  Level FlightAware Approximate
01:50AM 49.3071 -37.7290 79° East  Level FlightAware Approximate
01:51AM 49.3341 -37.5100 79° East  Level FlightAware Approximate
01:52AM 49.3608 -37.2908 79° East  Level FlightAware Approximate
01:53AM 49.3870 -37.0714 80° East  Level FlightAware Approximate
01:54AM 49.4128 -36.8517 80° East  Level FlightAware Approximate
01:55AM 49.4382 -36.6318 80° East  Level FlightAware Approximate
01:56AM 49.4632 -36.4116 80° East  Level FlightAware Approximate
01:57AM 49.4878 -36.1913 80° East  Level FlightAware Approximate
01:58AM 49.5119 -35.9707 80° East  Level FlightAware Approximate
01:59AM 49.5357 -35.7499 81° East  Level FlightAware Approximate
02:00AM 49.5590 -35.5289 81° East  Level FlightAware Approximate
02:01AM 49.5819 -35.3077 81° East  Level FlightAware Approximate
02:02AM 49.6043 -35.0863 81° East  Level FlightAware Approximate
02:03AM 49.6264 -34.8646 81° East  Level FlightAware Approximate
02:04AM 49.6480 -34.6428 81° East  Level FlightAware Approximate
02:05AM 49.6692 -34.4208 82° East  Level FlightAware Approximate
02:06AM 49.6899 -34.1986 82° East  Level FlightAware Approximate
02:07AM 49.7103 -33.9762 82° East  Level FlightAware Approximate
02:08AM 49.7302 -33.7536 82° East  Level FlightAware Approximate
02:09AM 49.7497 -33.5308 82° East  Level FlightAware Approximate
02:10AM 49.7688 -33.3079 82° East  Level FlightAware Approximate
02:11AM 49.7874 -33.0848 83° East  Level FlightAware Approximate
02:12AM 49.8056 -32.8615 83° East  Level FlightAware Approximate
02:13AM 49.8234 -32.6381 83° East  Level FlightAware Approximate
02:14AM 49.8407 -32.4145 83° East  Level FlightAware Approximate
02:15AM 49.8577 -32.1907 83° East  Level FlightAware Approximate
02:16AM 49.8741 -31.9668 83° East  Level FlightAware Approximate
02:17AM 49.8902 -31.7427 84° East  Level FlightAware Approximate
02:18AM 49.9058 -31.5185 84° East  Level FlightAware Approximate
02:19AM 49.9210 -31.2941 84° East  Level FlightAware Approximate
02:20AM 49.9358 -31.0696 84° East  Level FlightAware Approximate
02:21AM 49.9501 -30.8449 84° East  Level FlightAware Approximate
02:22AM 49.9640 -30.6202 84° East  Level FlightAware Approximate
02:23AM 49.9774 -30.3953 85° East  Level FlightAware Approximate
02:24AM 49.9904 -30.1703 85° East  Level FlightAware Approximate
02:25AM 50.0024 -29.9450 86° East  Level FlightAware Approximate
02:26AM 50.0117 -29.7195 86° East  Level FlightAware Approximate
02:27AM 50.0207 -29.4938 86° East  Level FlightAware Approximate
02:28AM 50.0292 -29.2681 87° East  Level FlightAware Approximate
02:29AM 50.0373 -29.0423 87° East  Level FlightAware Approximate
02:30AM 50.0449 -28.8164 87° East  Level FlightAware Approximate
02:31AM 50.0521 -28.5904 87° East  Level FlightAware Approximate
02:32AM 50.0589 -28.3644 87° East  Level FlightAware Approximate
02:33AM 50.0652 -28.1383 87° East  Level FlightAware Approximate
02:34AM 50.0711 -27.9122 88° East  Level FlightAware Approximate
02:35AM 50.0765 -27.6860 88° East  Level FlightAware Approximate
02:36AM 50.0815 -27.4597 88° East  Level FlightAware Approximate
02:37AM 50.0861 -27.2334 88° East  Level FlightAware Approximate
02:38AM 50.0902 -27.0071 88° East  Level FlightAware Approximate
02:39AM 50.0939 -26.7807 88° East  Level FlightAware Approximate
02:40AM 50.0971 -26.5543 89° East  Level FlightAware Approximate
02:41AM 50.0999 -26.3279 89° East  Level FlightAware Approximate
02:42AM 50.1023 -26.1014 89° East  Level FlightAware Approximate
02:43AM 50.1042 -25.8750 89° East  Level FlightAware Approximate
02:44AM 50.1057 -25.6485 89° East  Level FlightAware Approximate
02:45AM 50.1067 -25.4220 90° East  Level FlightAware Approximate
02:46AM 50.1073 -25.1955 90° East  Level FlightAware Approximate
02:47AM 50.1075 -24.9690 90° East  Level FlightAware Approximate
02:48AM 50.1072 -24.7425 90° East  Level FlightAware Approximate
02:49AM 50.1065 -24.5159 90° East  Level FlightAware Approximate
02:50AM 50.1053 -24.2894 90° East  Level FlightAware Approximate
02:51AM 50.1037 -24.0630 91° East  Level FlightAware Approximate
02:52AM 50.1017 -23.8429 91° East  Level FlightAware Approximate
02:53AM 50.0994 -23.6229 91° East  Level FlightAware Approximate
02:54AM 50.0965 -23.4030 91° East  Level FlightAware Approximate
02:55AM 50.0933 -23.1830 91° East  Level FlightAware Approximate
02:56AM 50.0897 -22.9631 91° East  Level FlightAware Approximate
02:57AM 50.0856 -22.7432 92° East  Level FlightAware Approximate
02:58AM 50.0812 -22.5234 92° East  Level FlightAware Approximate
02:59AM 50.0763 -22.3036 92° East  Level FlightAware Approximate
03:00AM 50.0710 -22.0838 92° East  Level FlightAware Approximate
03:01AM 50.0653 -21.8641 92° East  Level FlightAware Approximate
03:02AM 50.0591 -21.6445 92° East  Level FlightAware Approximate
03:03AM 50.0526 -21.4249 93° East  Level FlightAware Approximate
03:04AM 50.0456 -21.2053 93° East  Level FlightAware Approximate
03:05AM 50.0383 -20.9859 93° East  Level FlightAware Approximate
03:06AM 50.0305 -20.7665 93° East  Level FlightAware Approximate
03:07AM 50.0223 -20.5472 93° East  Level FlightAware Approximate
03:08AM 50.0137 -20.3279 93° East  Level FlightAware Approximate
03:09AM 50.0046 -20.1088 94° East  Level FlightAware Approximate
03:10AM 50.0009 -19.8894 89° East  Level FlightAware Approximate
03:11AM 50.0022 -19.6698 89° East  Level FlightAware Approximate
03:12AM 50.0032 -19.4502 90° East  Level FlightAware Approximate
03:13AM 50.0037 -19.2306 90° East  Level FlightAware Approximate
03:14AM 50.0039 -19.0111 90° East  Level FlightAware Approximate
03:15AM 50.0036 -18.7915 90° East  Level FlightAware Approximate
03:16AM 50.0029 -18.5719 90° East  Level FlightAware Approximate
03:17AM 50.0018 -18.3523 90° East  Level FlightAware Approximate
03:18AM 50.0003 -18.1327 91° East  Level FlightAware Approximate
03:19AM 49.9983 -17.9132 91° East  Level FlightAware Approximate
03:20AM 49.9960 -17.6937 91° East  Level FlightAware Approximate
03:21AM 49.9932 -17.4742 91° East  Level FlightAware Approximate
03:22AM 49.9900 -17.2547 91° East  Level FlightAware Approximate
03:23AM 49.9864 -17.0352 91° East  Level FlightAware Approximate
03:24AM 49.9824 -16.8158 92° East  Level FlightAware Approximate
03:25AM 49.9780 -16.5965 92° East  Level FlightAware Approximate
03:26AM 49.9732 -16.3771 92° East  Level FlightAware Approximate
03:27AM 49.9679 -16.1578 92° East  Level FlightAware Approximate
03:28AM 49.9623 -15.9386 92° East  Level FlightAware Approximate
03:29AM 49.9562 -15.7194 92° East  Level FlightAware Approximate
03:30AM 49.9497 -15.5003 93° East  Level FlightAware Approximate
03:31AM 49.9428 -15.2812 93° East  Level FlightAware Approximate
03:32AM 49.9355 -15.0622 93° East  Level FlightAware Approximate
03:33AM 49.9283 -14.8433 93° East  Level FlightAware Approximate
03:34AM 49.9209 -14.6243 93° East  Level FlightAware Approximate
03:35AM 49.9132 -14.4055 93° East  Level FlightAware Approximate
03:36AM 49.9049 -14.1867 93° East  Level FlightAware Approximate
03:37AM 49.8963 -13.9680 93° East  Level FlightAware Approximate
03:38AM 49.8873 -13.7493 94° East  Level FlightAware Approximate
03:39AM 49.8779 -13.5308 94° East  Level FlightAware Approximate
03:40AM 49.8680 -13.3123 94° East  Level FlightAware Approximate
03:41AM 49.8578 -13.0940 94° East  Level FlightAware Approximate
03:42AM 49.8471 -12.8757 94° East  Level FlightAware Approximate
03:43AM 49.8361 -12.6575 94° East  Level FlightAware Approximate
03:44AM 49.8246 -12.4394 95° East  Level FlightAware Approximate
03:45AM 49.8127 -12.2215 95° East  Level FlightAware Approximate
03:46AM 49.8004 -12.0036 95° East  Level FlightAware Approximate
03:47AM 49.7877 -11.7858 95° East  Level FlightAware Approximate
03:48AM 49.7746 -11.5682 95° East  Level FlightAware Approximate
03:49AM 49.7611 -11.3507 95° East  Level FlightAware Approximate
03:50AM 49.7471 -11.1333 96° East  Level FlightAware Approximate
03:51AM 49.7328 -10.9161 96° East  Level FlightAware Approximate
03:52AM 49.7181 -10.6989 96° East  Level FlightAware Approximate
03:52AM 49.7020 -10.1760 96° East 500 575 40,000  Level FlightAware
03:53AM 49.7029 -10.4819 96° East  Level FlightAware Approximate
03:53AM 49.6890 -10.0270 98° East 502 578 40,000  Level FlightAware
03:54AM 49.6750 -9.8630 97° East 504 580 40,000  Level FlightAware
03:55AM 49.6630 -9.7200 97° East 505 581 40,000  Level FlightAware
03:55AM 49.6510 -9.5790 97° East 502 578 40,000  Level FlightAware
03:56AM 49.6370 -9.4230 98° East 500 575 40,000  Level FlightAware
03:57AM 49.6240 -9.2800 98° East 498 573 40,000  Level FlightAware
03:57AM 49.6110 -9.1360 98° East 497 572 40,000  Level FlightAware
03:58AM 49.5960 -8.9820 98° East 497 572 40,000  Level FlightAware
03:59AM 49.5840 -8.8550 98° East 499 574 40,000  Level FlightAware
03:59AM 49.5710 -8.7140 98° East 500 575 40,000  Level FlightAware
04:00AM 49.5560 -8.5660 99° East 501 577 40,000  Level FlightAware
04:01AM 49.5430 -8.4290 98° East 500 575 40,000  Level FlightAware
04:02AM 49.5270 -8.2650 98° East 500 575 40,000  Level FlightAware
04:02AM 49.5130 -8.1260 99° East 498 573 40,000  Level FlightAware
04:03AM 49.4990 -7.9760 98° East 499 574 40,000  Level FlightAware
04:04AM 49.4960 -7.8290 92° East 500 575 40,000  Level FlightAware
04:04AM 49.4930 -7.6720 92° East 497 572 40,000  Level FlightAware
04:05AM 49.4910 -7.5590 92° East 496 571 40,000  Level FlightAware
04:06AM 49.4870 -7.4040 92° East 496 571 40,000  Level FlightAware
04:06AM 49.4830 -7.2640 92° East 494 568 40,000  Level FlightAware
04:07AM 49.4790 -7.1370 93° East 495 570 40,000  Level FlightAware
04:08AM 49.4750 -6.9860 92° East 495 570 40,000  Level FlightAware
04:08AM 49.4710 -6.8460 92° East 494 568 40,000  Level FlightAware
04:09AM 49.4660 -6.6920 93° East 495 570 40,000  Level FlightAware
04:10AM 49.4610 -6.5520 93° East 496 571 40,000  Level FlightAware
04:10AM 49.4560 -6.3990 93° East 496 571 40,000  Level FlightAware
04:13AM 49.4385 -5.9367 93° East  Level FlightAware Approximate
04:13AM 49.4350 -5.8420 93° East 497 572 40,000  Level FlightAware
04:14AM 49.4330 -5.6530 91° East 500 575 40,000  Level FlightAware
04:15AM 49.4360 -5.5070 88° East 501 577 40,000  Level FlightAware
04:15AM 49.4380 -5.3460 89° East 497 572 40,000  Level FlightAware
04:16AM 49.4390 -5.2040 89° East 494 568 40,000  Level FlightAware
04:17AM 49.4400 -5.0660 89° East 492 566 40,000  Level FlightAware
04:17AM 49.4400 -4.9050 90° East 491 565 40,000  Level FlightAware
04:18AM 49.4410 -4.7650 89° East 494 568 40,000  Level FlightAware
04:19AM 49.4410 -4.6070 90° East 494 568 40,000  Level FlightAware
04:20AM 49.4410 -4.4730 90° East 493 567 40,000  Level FlightAware
04:20AM 49.4410 -4.3320 90° East 493 567 40,000  Level FlightAware
04:21AM 49.4410 -4.2000 90° East 494 568 40,000  Level FlightAware
04:22AM 49.4400 -4.0480 91° East 492 566 40,000  Level FlightAware
04:22AM 49.4400 -3.9100 90° East 491 565 40,000  Level FlightAware
04:23AM 49.4390 -3.7730 91° East 489 563 40,000  Level FlightAware
04:24AM 49.4380 -3.6110 90° East 489 563 40,000  Level FlightAware
04:24AM 49.4370 -3.4810 91° East 491 565 40,000  Level FlightAware
04:25AM 49.4360 -3.3620 91° East 491 565 40,000  Level FlightAware
04:26AM 49.4340 -3.2140 91° East 490 564 40,000  Level FlightAware
04:26AM 49.4330 -3.0650 91° East 490 564 40,000  Level FlightAware
04:27AM 49.4310 -2.9370 91° East 489 563 40,000  Level FlightAware
04:28AM 49.4290 -2.7990 91° East 488 562 40,000  Level FlightAware
04:28AM 49.4270 -2.6650 91° East 488 562 40,000  Level FlightAware
04:29AM 49.4250 -2.5210 91° East 489 563 40,000  Level FlightAware
04:30AM 49.4220 -2.3690 92° East 488 562 40,000  Level FlightAware
04:31AM 49.4190 -2.1940 91° East 486 559 40,000  Level FlightAware
04:31AM 49.4170 -2.0750 91° East 486 559 40,000  Level FlightAware
04:32AM 49.4130 -1.9000 92° East 487 560 40,000 -240 Level FlightAware
04:33AM 49.4090 -1.7360 92° East 487 560 39,700 -660 Descending FlightAware
04:33AM 49.4060 -1.6020 92° East 491 565 39,000 -1,620 Descending FlightAware
04:34AM 49.4010 -1.4220 92° East 487 560 37,300 -2,220 Descending FlightAware
04:35AM 49.3960 -1.2470 92° East 480 552 35,500 -1,860 Descending FlightAware
04:36AM 49.3930 -1.1150 92° East 464 534 34,700 -1,200 Descending FlightAware
04:36AM 49.3890 -1.0030 93° East 448 516 34,000 -1,440 Descending FlightAware
04:37AM 49.3850 -0.8650 92° East 435 501 32,800 -1,680 Descending FlightAware
04:37AM 49.3830 -0.7900 92° East 432 497 32,100 -1,860 Descending FlightAware
04:39AM 49.3760 -0.5840 93° East 422 486 30,000 -1,740 Descending FlightAware
04:39AM 49.3720 -0.4690 93° East 414 476 29,000 -1,500 Descending FlightAware
04:40AM 49.3680 -0.3490 93° East 408 470 28,000 -900 Descending FlightAware
04:41AM 49.3580 -0.1830 95° East 378 435 27,500 -720 Descending FlightAware
04:42AM 49.3520 -0.0600 94° East 359 413 26,800 -1,200 Descending FlightAware
04:42AM 49.3490 0.0430 93° East 358 412 25,800 -1,500 Descending FlightAware
04:43AM 49.3460 0.1320 93° East 355 409 24,900 -1,380 Descending FlightAware
04:44AM 49.3440 0.2300 92° East 347 399 24,100 -1,320 Descending FlightAware
04:44AM 49.3410 0.3390 92° East 343 395 23,100 -1,380 Descending FlightAware
04:45AM 49.3390 0.4130 92° East 339 390 22,400 -1,320 Descending FlightAware
04:46AM 49.3360 0.5080 93° East 336 387 21,600 -1,320 Descending FlightAware
04:46AM 49.3340 0.5870 92° East 334 384 20,800 -1,320 Descending FlightAware
04:47AM 49.3310 0.6920 92° East 328 377 19,900 -1,200 Descending FlightAware
04:48AM 49.3270 0.7950 93° East 319 367 19,000 -1,080 Descending FlightAware
04:48AM 49.3240 0.8910 93° East 283 326 18,300 -1,260 Descending FlightAware
04:49AM 49.3220 0.9630 92° East 276 318 17,200 -2,100 Descending FlightAware
04:50AM 49.3190 1.0480 93° East 273 314 15,500 -2,400 Descending FlightAware
04:50AM 49.3160 1.1290 93° East 263 303 13,900 -2,100 Descending FlightAware
04:51AM 49.3140 1.2040 92° East 259 298 12,600 -1,680 Descending FlightAware
04:52AM 49.3110 1.2890 93° East 258 297 11,600 -1,140 Descending FlightAware
04:53AM 49.3080 1.3530 94° East 255 293 11,000 -1,620 Descending FlightAware
04:53AM 49.3060 1.4130 93° East 281 323 9,700 -2,280 Descending FlightAware
04:53AM 49.3050 1.4430 93° East 284 327 9,300 -1,500 Descending FlightAware
04:54AM 49.3020 1.5180 93° East 283 326 8,500 -1,200 Descending FlightAware
04:54AM 49.3000 1.5690 93° East 280 322 8,100 -600 Descending FlightAware
04:55AM 49.2980 1.6180 94° East 278 320 8,000 -120 Descending FlightAware
04:55AM 49.2950 1.6880 94° East 280 322 8,000  Level FlightAware
04:56AM 49.2930 1.7260 95° East 280 322 8,000  Level FlightAware
04:56AM 49.2810 1.7610 118° Southeast 271 312 8,000  Level FlightAware
04:56AM 49.2650 1.7760 149° Southeast 267 307 8,000  Level FlightAware
04:57AM 49.2370 1.7940 157° South 267 307 8,000  Level FlightAware
04:57AM 49.1940 1.8210 158° South 259 298 8,000  Level FlightAware
04:58AM 49.1660 1.8300 168° South 245 282 8,000  Level FlightAware
04:58AM 49.1510 1.8350 168° South 232 267 8,000  Level FlightAware
04:58AM 49.1170 1.8440 170° South 232 267 8,000  Level FlightAware
04:59AM 49.0840 1.8540 169° South 231 266 8,000  Level FlightAware
04:59AM 49.0580 1.8610 170° South 230 265 8,000 -120 Level FlightAware
05:00AM 49.0310 1.8690 169° South 238 274 7,900 -360 Descending FlightAware
05:00AM 49.0200 1.8770 155° Southeast 237 273 7,800 -1,200 Descending FlightAware
05:00AM 49.0100 1.8960 129° Southeast 235 270 7,400 -1,440 Descending FlightAware
05:00AM 49.0050 1.9110 117° Southeast 240 276 7,200 -900 Descending FlightAware
05:01AM 48.9880 1.9550 120° Southeast 237 273 6,800 -720 Descending FlightAware
05:01AM 48.9730 1.9980 118° Southeast 223 257 6,500 -600 Descending FlightAware
05:02AM 48.9640 2.0330 111° Southeast 214 246 6,300 -600 Descending FlightAware
05:02AM 48.9660 2.0770 86° East 194 223 6,000 -720 Descending FlightAware
05:02AM 48.9670 2.0970 86° East 193 222 5,800 -1,080 Descending FlightAware
05:03AM 48.9690 2.1300 85° East 193 222 5,300 -1,020 Descending FlightAware
05:03AM 48.9710 2.1710 86° East 188 216 4,900 -540 Descending FlightAware
05:04AM 48.9720 2.1910 86° East 189 217 4,900 -540 Level FlightAware
05:04AM 48.9740 2.2160 83° East 192 221 4,600 -1,080 Descending FlightAware
05:04AM 48.9750 2.2450 87° East 190 219 4,200 -1,140 Descending FlightAware
05:05AM 48.9770 2.2770 85° East 181 208 3,800 -960 Descending FlightAware
05:05AM 48.9790 2.3080 84° East 173 199 3,400 -840 Descending FlightAware
05:06AM 48.9810 2.3380 84° East 171 197 3,100 -900 Descending FlightAware
05:06AM 48.9820 2.3740 88° East 165 190 2,600 -900 Descending FlightAware
05:07AM 48.9840 2.4080 85° East 158 182 2,200 -780 Descending FlightAware
05:07AM 48.9860 2.4350 84° East 157 181 1,900 -840 Descending FlightAware
05:07AM 48.9870 2.4560 86° East 153 176 1,600 -780 Descending FlightAware
05:08AM 48.9890 2.4920 85° East 135 155 1,200 -720 Descending FlightAware
05:08AM 48.9900 2.5160 86° East 139 160 900 -720 Descending FlightAware
05:09AM 48.9920 2.5410 83° East 136 157 600 -780 Descending FlightAware
05:09AM 48.9930 2.5670 87° East 137 158 200 -840 Descending FlightAware
05:10AM 48.9940 2.5880 86° East 60 69 -480 Descending FlightAware
05:10AM 48.9940 2.5920 90° East 20 23  Level FlightAware
05:10AM 48.9960 2.5960 53° Northeast 11 13  Level FlightAware
05:13AM 49.0000 2.5333 102° East  Level FlightAware Approximate
05:14AM 49.0128 2.5500 102° East  Level Estimated
05:15AM 49.0128 2.5500 102° East  Level Estimated
05:16AM 49.0128 2.5500 102° East  Level Estimated
05:17AM 49.0128 2.5500 102° East  Level Estimated
05:18AM 49.0128 2.5500 102° East  Level Estimated
05:19AM 49.0128 2.5500 102° East  Level Estimated
05:20AM 49.0128 2.5500 102° East  Level Estimated
05:21AM 49.0128 2.5500 102° East  Level Estimated
05:22AM 49.0128 2.5500 102° East  Level Estimated
05:23AM 49.0128 2.5500 102° East  Level Estimated